Time;durP1;ratioP1;P1;durP2;ratioP2;P2;SDS_P1;SDS_P2;PMS_P1;PMS_P2;Temp;Humidity;BMP_temperature;BMP_pressure;BME280_temperature;BME280_humidity;BME280_pressure;Samples;Min_cycle;Max_cycle;Signal;HPM_P1;HPM_P2
2022/01/04 00:01:51;;;;;;;7.73;5.00;;;11.60;99.90;;;;;;5011795;28;20172;-64
2022/01/04 00:04:17;;;;;;;6.50;3.20;;;10.50;99.90;;;;;;5011889;28;20180;-65
2022/01/04 00:06:45;;;;;;;33.93;20.80;;;10.60;99.90;;;;;;5011745;28;20227;-63
2022/01/04 00:09:11;;;;;;;13.43;8.73;;;10.70;99.90;;;;;;5011836;28;20204;-63
2022/01/04 00:12:00;;;;;;;30.90;19.13;;;10.80;99.90;;;;;;5011816;28;20247;-64
2022/01/04 00:14:26;;;;;;;13.13;8.63;;;10.80;99.90;;;;;;5011487;28;20207;-64
2022/01/04 00:16:55;;;;;;;4.30;2.97;;;10.90;99.90;;;;;;4993805;28;20574;-66
2022/01/04 00:19:20;;;;;;;2.63;2.00;;;10.90;99.90;;;;;;5011678;28;20275;-65
2022/01/04 00:21:46;;;;;;;4.33;2.13;;;12.30;99.90;;;;;;5012140;28;20227;-63
2022/01/04 00:24:11;;;;;;;2.37;1.90;;;10.90;99.90;;;;;;5006284;28;20181;-63
2022/01/04 00:26:37;;;;;;;3.07;2.27;;;10.80;99.90;;;;;;5001934;28;20546;-63
2022/01/04 00:29:03;;;;;;;3.40;1.80;;;10.80;99.90;;;;;;5006492;28;20275;-64
2022/01/04 00:31:29;;;;;;;2.27;1.67;;;10.70;99.90;;;;;;5012205;28;20648;-64
2022/01/04 00:33:54;;;;;;;2.13;1.60;;;10.60;99.90;;;;;;4994059;28;20176;-65
2022/01/04 00:36:20;;;;;;;4.50;2.17;;;10.60;99.90;;;;;;5009618;28;20837;-63
2022/01/04 00:38:45;;;;;;;2.17;1.77;;;10.50;99.90;;;;;;5011089;28;20573;-63
2022/01/04 00:41:11;;;;;;;5.77;2.43;;;10.50;99.90;;;;;;5013482;28;20184;-66
2022/01/04 00:43:36;;;;;;;3.47;1.90;;;10.40;99.90;;;;;;5015312;28;20179;-65
2022/01/04 00:46:02;;;;;;;4.40;2.13;;;10.30;99.90;;;;;;5015014;28;20224;-65
2022/01/04 00:50:54;;;;;;;3.13;1.90;;;9.90;99.90;;;;;;5015242;28;20224;-63
2022/01/04 00:53:20;;;;;;;3.03;2.23;;;9.80;99.90;;;;;;5015483;28;20188;-63
2022/01/04 00:55:46;;;;;;;1.70;1.60;;;9.70;99.90;;;;;;5014955;28;20185;-66
2022/01/04 00:58:11;;;;;;;2.03;1.83;;;9.60;99.90;;;;;;5015020;28;20272;-64
2022/01/04 01:00:39;;;;;;;4.27;1.87;;;9.60;99.90;;;;;;5015224;28;20180;-64
2022/01/04 01:03:06;;;;;;;3.37;2.03;;;9.50;99.90;;;;;;5014871;28;20172;-65
2022/01/04 01:05:33;;;;;;;2.27;1.50;;;9.50;99.90;;;;;;5014467;28;20184;-65
2022/01/04 01:07:59;;;;;;;1.57;1.47;;;9.40;99.90;;;;;;5015236;28;20172;-64
2022/01/04 01:10:44;;;;;;;3.53;2.00;;;9.30;99.90;;;;;;5015530;28;20239;-64
2022/01/04 01:13:12;;;;;;;4.37;2.23;;;9.30;99.90;;;;;;5015035;28;20267;-62
2022/01/04 01:15:40;;;;;;;3.10;1.93;;;9.30;99.90;;;;;;5014923;28;20169;-65
2022/01/04 01:18:06;;;;;;;2.93;1.90;;;9.20;99.90;;;;;;5014881;28;20260;-63
2022/01/04 01:20:31;;;;;;;2.87;2.27;;;9.10;99.90;;;;;;5015140;28;20220;-64
2022/01/04 01:22:57;;;;;;;4.20;1.90;;;9.00;99.90;;;;;;5014663;28;20176;-63
2022/01/04 01:25:22;;;;;;;2.40;2.20;;;9.10;99.90;;;;;;5014742;28;20541;-63
2022/01/04 01:27:48;;;;;;;4.03;1.93;;;9.00;99.90;;;;;;5014821;28;20192;-64
2022/01/04 01:30:14;;;;;;;2.47;1.80;;;9.00;99.90;;;;;;5014643;28;20270;-65
2022/01/04 01:32:40;;;;;;;3.70;2.03;;;9.10;99.90;;;;;;5014827;28;20176;-63
2022/01/04 01:35:06;;;;;;;2.47;1.67;;;9.20;99.90;;;;;;5014203;28;20515;-63
2022/01/04 01:37:34;;;;;;;4.00;2.33;;;9.30;99.90;;;;;;5014392;28;20204;-63
2022/01/04 01:39:59;;;;;;;2.90;1.93;;;9.50;99.90;;;;;;5014461;28;20195;-64
2022/01/04 01:42:25;;;;;;;4.47;2.57;;;9.60;99.90;;;;;;5010701;28;20649;-64
2022/01/04 01:44:51;;;;;;;3.33;1.93;;;9.70;99.90;;;;;;5013928;28;20717;-63
2022/01/04 01:47:16;;;;;;;3.13;2.20;;;9.50;99.90;;;;;;5013751;28;20196;-63
2022/01/04 01:49:42;;;;;;;3.93;2.13;;;9.20;99.90;;;;;;5013957;28;20738;-63
2022/01/04 01:52:07;;;;;;;2.43;2.13;;;9.10;99.90;;;;;;5013863;28;20538;-63
2022/01/04 01:54:33;;;;;;;3.50;2.03;;;8.90;99.90;;;;;;5014186;28;20679;-63
2022/01/04 01:56:58;;;;;;;4.33;2.53;;;8.90;99.90;;;;;;5013824;28;20192;-61
2022/01/04 01:59:24;;;;;;;2.87;2.20;;;8.80;99.90;;;;;;5014304;28;20185;-65
2022/01/04 02:01:51;;;;;;;2.33;2.13;;;8.70;99.90;;;;;;5013974;28;20172;-63
2022/01/04 02:04:16;;;;;;;4.20;2.20;;;8.70;99.90;;;;;;5013939;28;20165;-63
2022/01/04 02:06:42;;;;;;;4.20;2.20;;;8.60;99.90;;;;;;5013914;28;20230;-63
2022/01/04 02:09:08;;;;;;;3.67;2.40;;;8.70;99.90;;;;;;5013974;28;20209;-63
2022/01/04 02:11:34;;;;;;;3.97;2.30;;;8.60;99.90;;;;;;5013787;28;20171;-63
2022/01/04 02:14:02;;;;;;;2.67;2.17;;;8.60;99.90;;;;;;5013854;28;20169;-67
2022/01/04 02:16:30;;;;;;;4.20;2.30;;;10.00;99.90;;;;;;5013849;28;20168;-63
2022/01/04 02:19:04;;;;;;;2.30;2.10;;;8.60;99.90;;;;;;5013430;28;20223;-62
2022/01/04 02:21:31;;;;;;;3.70;2.40;;;8.60;99.90;;;;;;5014031;28;20164;-62
2022/01/04 02:23:57;;;;;;;3.73;2.23;;;8.50;99.90;;;;;;5013403;28;20534;-58
2022/01/04 02:26:23;;;;;;;2.63;2.10;;;8.50;99.90;;;;;;5013715;28;20172;-63
2022/01/04 02:28:50;;;;;;;2.50;2.07;;;8.40;99.90;;;;;;5013448;28;20199;-62
2022/01/04 02:31:15;;;;;;;2.47;2.20;;;8.40;99.90;;;;;;5013731;28;20172;-63
2022/01/04 02:33:41;;;;;;;3.70;2.30;;;8.40;99.90;;;;;;5013523;28;20522;-64
2022/01/04 02:36:07;;;;;;;3.37;2.50;;;8.60;99.90;;;;;;5013343;28;20184;-64
2022/01/04 02:38:33;;;;;;;3.90;2.47;;;8.70;99.90;;;;;;5013313;28;20707;-63
2022/01/04 02:40:59;;;;;;;2.03;1.90;;;8.60;99.90;;;;;;5013437;28;20590;-65
2022/01/04 02:43:25;;;;;;;4.10;2.33;;;8.70;99.90;;;;;;5013370;28;20183;-64
2022/01/04 02:45:50;;;;;;;6.03;2.33;;;8.70;99.90;;;;;;5013126;28;20259;-63
2022/01/04 02:48:16;;;;;;;3.53;2.53;;;8.80;99.90;;;;;;5013440;28;20192;-63
2022/01/04 02:50:42;;;;;;;2.90;2.30;;;8.80;99.90;;;;;;5013228;28;20173;-65
2022/01/04 02:53:07;;;;;;;2.23;1.90;;;8.90;99.90;;;;;;5013330;28;20231;-66
2022/01/04 02:55:33;;;;;;;4.23;2.40;;;8.90;99.90;;;;;;5012877;28;20188;-62
2022/01/04 02:57:59;;;;;;;3.63;2.23;;;8.80;99.90;;;;;;5012947;28;20202;-63
2022/01/04 03:00:25;;;;;;;2.47;2.07;;;8.80;99.90;;;;;;4995586;28;20172;-65
2022/01/04 03:02:51;;;;;;;2.90;1.73;;;8.80;99.90;;;;;;5012399;28;20192;-62
2022/01/04 03:05:17;;;;;;;4.77;1.93;;;8.80;99.90;;;;;;5012384;28;20176;-64
2022/01/04 03:07:43;;;;;;;2.03;1.83;;;8.80;99.90;;;;;;5013020;28;20588;-65
2022/01/04 03:10:09;;;;;;;3.33;2.13;;;8.80;99.90;;;;;;5029673;23;20232;-51
2022/01/04 03:12:35;;;;;;;2.00;1.80;;;8.80;99.90;;;;;;5013171;28;20657;-48
2022/01/04 03:15:02;;;;;;;2.20;1.83;;;8.80;99.90;;;;;;5031695;28;20183;-50
2022/01/04 03:17:28;;;;;;;3.80;2.07;;;8.90;99.90;;;;;;5031759;28;20267;-49
2022/01/04 03:19:53;;;;;;;4.47;4.07;;;8.80;99.90;;;;;;5006577;28;20228;-51
2022/01/04 03:22:19;;;;;;;2.93;1.90;;;8.80;99.90;;;;;;5012311;28;20169;-49
2022/01/04 03:24:44;;;;;;;2.93;1.97;;;8.80;99.90;;;;;;5012446;28;20204;-50
2022/01/04 03:27:10;;;;;;;2.80;1.60;;;8.80;99.90;;;;;;5009066;28;20193;-50
2022/01/04 03:29:35;;;;;;;3.33;2.00;;;8.90;99.90;;;;;;5008958;28;20223;-50
2022/01/04 03:32:01;;;;;;;2.37;1.70;;;8.90;99.90;;;;;;5012176;28;20645;-49
2022/01/04 03:34:26;;;;;;;2.30;1.83;;;9.00;99.90;;;;;;5012064;28;20641;-53
2022/01/04 03:36:52;;;;;;;1.90;1.80;;;9.00;99.90;;;;;;5012367;28;20183;-53
2022/01/04 03:39:18;;;;;;;4.00;1.90;;;9.10;99.90;;;;;;5012054;28;20188;-50
2022/01/04 03:41:46;;;;;;;1.63;1.50;;;9.10;99.90;;;;;;5012464;28;20316;-50
2022/01/04 03:44:20;;;;;;;3.83;1.73;;;9.10;99.90;;;;;;5008925;28;20528;-50
2022/01/04 03:46:50;;;;;;;2.77;1.70;;;9.00;99.90;;;;;;5009910;28;20171;-49
2022/01/04 03:49:16;;;;;;;3.40;1.83;;;9.10;99.90;;;;;;5012123;28;20545;-52
2022/01/04 03:51:42;;;;;;;4.50;1.83;;;9.00;99.90;;;;;;5012411;28;20164;-49
2022/01/04 03:54:07;;;;;;;2.87;1.70;;;9.00;99.90;;;;;;5011654;28;20251;-53
2022/01/04 03:56:33;;;;;;;2.87;1.50;;;9.00;99.90;;;;;;5012215;28;20168;-54
2022/01/04 03:59:00;;;;;;;3.47;1.80;;;9.10;99.90;;;;;;5012156;28;20243;-49
2022/01/04 04:01:25;;;;;;;1.97;1.40;;;9.20;99.90;;;;;;5012207;28;20172;-49
2022/01/04 04:03:51;;;;;;;2.40;1.90;;;9.20;99.90;;;;;;5012152;28;20165;-51
2022/01/04 04:06:17;;;;;;;2.17;1.60;;;9.40;99.90;;;;;;5011565;28;20180;-52
2022/01/04 04:08:42;;;;;;;1.90;1.70;;;9.40;99.90;;;;;;5012201;28;20168;-52
2022/01/04 04:11:08;;;;;;;2.27;1.80;;;9.40;99.90;;;;;;5011557;28;20666;-50
2022/01/04 04:13:33;;;;;;;3.03;1.70;;;9.40;99.90;;;;;;4994335;28;20230;-51
2022/01/04 04:15:59;;;;;;;2.10;1.63;;;9.40;99.90;;;;;;5011460;28;20188;-49
2022/01/04 04:18:24;;;;;;;2.53;1.90;;;9.30;99.90;;;;;;5008330;28;20698;-49
2022/01/04 04:20:50;;;;;;;1.70;1.60;;;9.20;99.90;;;;;;5010275;28;20192;-49
2022/01/04 04:23:16;;;;;;;2.10;1.63;;;9.20;99.90;;;;;;5011616;28;20653;-52
2022/01/04 04:25:41;;;;;;;2.37;1.43;;;9.30;99.90;;;;;;5011731;28;20164;-54
2022/01/04 04:28:07;;;;;;;2.17;1.60;;;9.20;99.90;;;;;;5011494;28;20771;-49
2022/01/04 04:30:34;;;;;;;1.70;1.60;;;9.20;99.90;;;;;;5011902;28;20200;-49
2022/01/04 04:32:59;;;;;;;2.07;1.50;;;9.30;99.90;;;;;;5011505;28;20172;-51
2022/01/04 04:35:25;;;;;;;2.23;1.53;;;9.30;99.90;;;;;;5011524;28;20614;-49
2022/01/04 04:37:50;;;;;;;1.60;1.50;;;9.40;99.90;;;;;;5011650;28;20226;-49
2022/01/04 04:40:16;;;;;;;2.23;1.50;;;9.40;99.90;;;;;;5011630;28;20187;-53
2022/01/04 04:42:42;;;;;;;1.53;1.43;;;9.50;99.90;;;;;;5011812;28;20256;-53
2022/01/04 04:45:08;;;;;;;3.80;2.00;;;9.50;99.90;;;;;;5011045;28;20203;-48
2022/01/04 04:47:35;;;;;;;1.80;1.53;;;9.50;99.90;;;;;;5011761;28;20168;-49
2022/01/04 04:50:01;;;;;;;3.13;1.60;;;9.50;99.90;;;;;;5010843;28;20684;-51
2022/01/04 04:52:26;;;;;;;2.63;1.90;;;9.50;99.90;;;;;;5011781;28;20239;-50
2022/01/04 04:54:52;;;;;;;3.73;2.00;;;9.60;99.90;;;;;;5011229;28;20180;-51
2022/01/04 04:57:18;;;;;;;2.93;1.83;;;9.60;99.90;;;;;;5011462;28;20238;-51
2022/01/04 04:59:43;;;;;;;1.63;1.53;;;9.50;99.90;;;;;;5011330;28;20200;-51
2022/01/04 05:02:09;;;;;;;2.37;1.77;;;9.50;99.90;;;;;;5002005;28;20195;-51
2022/01/04 05:04:35;;;;;;;1.77;1.63;;;9.40;99.90;;;;;;5001638;28;20221;-49
2022/01/04 05:07:01;;;;;;;1.80;1.70;;;9.40;99.90;;;;;;5006807;28;20188;-54
2022/01/04 05:09:26;;;;;;;2.20;1.90;;;9.40;99.90;;;;;;5010726;28;20207;-54
2022/01/04 05:11:52;;;;;;;4.60;1.90;;;9.40;99.90;;;;;;5009697;28;20288;-50
2022/01/04 05:14:18;;;;;;;5.87;5.20;;;9.30;99.90;;;;;;5010960;28;20191;-54
2022/01/04 05:16:43;;;;;;;7.97;6.57;;;9.30;99.90;;;;;;5010988;28;20180;-52
2022/01/04 05:19:09;;;;;;;9.33;7.27;;;9.40;99.90;;;;;;5005758;28;20252;-52
2022/01/04 05:21:35;;;;;;;9.73;8.50;;;9.50;99.90;;;;;;5010946;28;20255;-50
2022/01/04 05:24:00;;;;;;;3.60;3.13;;;9.50;99.90;;;;;;5011150;28;20200;-55
2022/01/04 05:26:26;;;;;;;18.30;16.60;;;9.40;99.90;;;;;;5013037;28;20204;-53
2022/01/04 05:28:51;;;;;;;18.77;16.87;;;9.40;99.90;;;;;;5014528;28;20180;-55
2022/01/04 05:31:17;;;;;;;13.37;12.07;;;9.40;99.90;;;;;;5014743;28;20196;-50
2022/01/04 05:33:43;;;;;;;7.43;6.63;;;9.50;99.90;;;;;;5014393;28;20183;-52
2022/01/04 05:36:09;;;;;;;2.63;2.20;;;9.60;99.90;;;;;;5009559;28;20712;-49
2022/01/04 05:38:34;;;;;;;2.43;2.10;;;9.60;99.90;;;;;;5013890;28;20208;-50
2022/01/04 05:41:00;;;;;;;2.67;2.27;;;9.60;99.90;;;;;;5014601;28;20197;-50
2022/01/04 05:43:25;;;;;;;4.30;2.97;;;9.70;99.90;;;;;;5014258;28;20260;-55
2022/01/04 05:45:51;;;;;;;5.83;3.60;;;9.70;99.90;;;;;;5014149;28;20177;-53
2022/01/04 05:48:20;;;;;;;3.57;2.97;;;9.70;99.90;;;;;;5014262;28;20216;-55
2022/01/04 05:50:46;;;;;;;1.83;1.50;;;9.70;99.90;;;;;;5014265;28;20224;-50
2022/01/04 05:53:11;;;;;;;4.13;2.10;;;9.60;99.90;;;;;;5014392;28;20185;-50
2022/01/04 05:55:37;;;;;;;5.33;4.83;;;9.50;99.90;;;;;;5013710;28;20195;-53
2022/01/04 05:58:02;;;;;;;3.57;1.70;;;9.40;99.90;;;;;;5014153;28;20208;-49
2022/01/04 06:00:28;;;;;;;1.60;1.40;;;9.50;99.90;;;;;;5013850;28;20196;-50
2022/01/04 06:02:54;;;;;;;2.93;1.70;;;9.50;99.90;;;;;;5014064;28;20177;-54
2022/01/04 06:05:19;;;;;;;1.40;1.20;;;9.60;99.90;;;;;;5013587;28;20546;-55
2022/01/04 06:07:45;;;;;;;2.53;2.30;;;9.60;99.90;;;;;;5014177;28;20237;-56
2022/01/04 06:10:12;;;;;;;4.20;2.70;;;9.70;99.90;;;;;;4996126;28;20303;-55
2022/01/04 06:15:10;;;;;;;3.40;2.80;;;9.80;99.90;;;;;;5013855;28;20184;-55
2022/01/04 06:17:44;;;;;;;3.23;2.33;;;9.70;99.90;;;;;;5013722;28;20193;-56
2022/01/04 06:20:13;;;;;;;4.63;2.60;;;9.70;99.90;;;;;;4996317;28;20196;-55
2022/01/04 06:22:39;;;;;;;2.37;2.10;;;9.60;99.90;;;;;;5013346;28;20207;-55
2022/01/04 06:25:08;;;;;;;2.70;2.50;;;9.60;99.90;;;;;;5013389;28;20224;-50
2022/01/04 06:27:34;;;;;;;2.50;2.30;;;9.60;99.90;;;;;;5012465;28;20188;-54
2022/01/04 06:30:00;;;;;;;3.60;3.23;;;9.70;99.90;;;;;;5013630;28;20196;-52
2022/01/04 06:32:26;;;;;;;3.30;2.13;;;9.70;99.90;;;;;;5013530;28;20177;-57
2022/01/04 06:34:52;;;;;;;2.07;1.87;;;9.60;99.90;;;;;;5013113;28;20279;-52
2022/01/04 06:37:18;;;;;;;2.07;1.73;;;9.60;99.90;;;;;;5012263;28;20207;-51
2022/01/04 06:39:44;;;;;;;2.20;1.77;;;9.70;99.90;;;;;;5013051;28;20193;-54
2022/01/04 06:42:14;;;;;;;1.60;1.50;;;9.60;99.90;;;;;;5013334;28;20169;-50
2022/01/04 06:44:41;;;;;;;1.70;1.60;;;9.60;99.90;;;;;;5013130;28;20173;-56
2022/01/04 06:47:07;;;;;;;1.87;1.67;;;9.70;99.90;;;;;;5013220;28;20657;-51
2022/01/04 06:49:33;;;;;;;3.43;3.03;;;9.70;99.90;;;;;;5012755;28;20207;-54
2022/01/04 06:51:59;;;;;;;2.80;2.50;;;9.70;99.90;;;;;;5013469;28;20177;-53
2022/01/04 06:54:25;;;;;;;2.53;2.13;;;9.70;99.90;;;;;;5012911;28;20307;-51
2022/01/04 06:56:50;;;;;;;2.37;2.17;;;9.70;99.90;;;;;;5012886;28;20191;-56
2022/01/04 06:59:17;;;;;;;2.33;2.10;;;9.60;99.90;;;;;;5012996;28;20235;-56
2022/01/04 07:01:43;;;;;;;3.20;2.03;;;9.50;99.90;;;;;;5012726;28;20207;-52
2022/01/04 07:04:08;;;;;;;2.30;2.10;;;9.50;99.90;;;;;;5012718;28;20173;-54
2022/01/04 07:06:34;;;;;;;2.37;2.07;;;9.50;99.90;;;;;;5012522;28;20200;-57
2022/01/04 07:09:00;;;;;;;3.13;2.47;;;9.50;99.90;;;;;;5012798;28;20191;-52
2022/01/04 07:11:26;;;;;;;3.73;2.90;;;9.60;99.90;;;;;;5012856;28;20188;-56
2022/01/04 07:13:52;;;;;;;4.47;3.00;;;9.70;99.90;;;;;;5012352;28;20247;-50
2022/01/04 07:16:18;;;;;;;3.90;3.30;;;9.60;99.90;;;;;;5012683;28;20268;-56
2022/01/04 07:18:49;;;;;;;4.60;3.30;;;9.60;99.90;;;;;;5010282;28;20275;-52
2022/01/04 07:21:19;;;;;;;3.73;2.83;;;9.70;99.90;;;;;;5012812;28;20192;-51
2022/01/04 07:23:46;;;;;;;2.67;2.47;;;9.80;99.90;;;;;;5012362;28;20168;-53
2022/01/04 07:26:14;;;;;;;3.77;2.50;;;9.80;99.90;;;;;;5012355;28;20169;-52
2022/01/04 07:28:40;;;;;;;3.00;2.60;;;9.80;99.90;;;;;;5012469;28;20168;-55
2022/01/04 07:31:06;;;;;;;3.13;2.70;;;9.80;99.90;;;;;;5012647;28;20283;-54
2022/01/04 07:33:32;;;;;;;4.27;3.87;;;9.80;99.90;;;;;;5012396;28;20255;-55
2022/01/04 07:35:57;;;;;;;8.00;7.20;;;9.80;99.90;;;;;;5012202;28;20522;-55
2022/01/04 07:38:23;;;;;;;4.63;4.17;;;9.80;99.90;;;;;;5012439;28;20715;-50
2022/01/04 07:40:48;;;;;;;3.33;2.93;;;9.80;99.90;;;;;;5012087;28;20311;-53
2022/01/04 07:43:14;;;;;;;4.90;3.60;;;9.70;99.90;;;;;;5012337;28;20172;-54
2022/01/04 07:45:40;;;;;;;4.07;3.10;;;9.60;99.90;;;;;;5011956;28;20176;-50
2022/01/04 07:48:10;;;;;;;2.20;1.83;;;9.40;99.90;;;;;;5011865;28;20188;-56
2022/01/04 07:50:39;;;;;;;2.63;2.30;;;9.40;99.90;;;;;;5011959;28;20274;-54
2022/01/04 07:53:06;;;;;;;3.57;2.00;;;9.50;99.90;;;;;;5012394;28;20184;-54
2022/01/04 07:55:31;;;;;;;1.97;1.70;;;9.60;99.90;;;;;;5011741;28;20283;-54
2022/01/04 07:57:57;;;;;;;1.90;1.67;;;9.70;99.90;;;;;;5012004;28;20713;-57
2022/01/04 08:00:24;;;;;;;2.23;1.60;;;9.70;99.90;;;;;;5012295;28;20224;-55
2022/01/04 08:02:50;;;;;;;1.50;1.40;;;9.60;99.90;;;;;;5011935;28;20176;-54
2022/01/04 08:05:15;;;;;;;2.17;1.70;;;9.70;99.90;;;;;;5011764;28;20187;-55
2022/01/04 08:07:41;;;;;;;3.00;1.60;;;9.60;99.90;;;;;;4994216;28;20203;-54
2022/01/04 08:10:07;;;;;;;8.50;7.60;;;9.60;99.90;;;;;;5011901;28;20208;-52
2022/01/04 08:12:33;;;;;;;2.90;2.23;;;9.40;99.90;;;;;;5011820;28;20219;-56
2022/01/04 08:14:58;;;;;;;1.80;1.70;;;9.40;99.90;;;;;;5011849;28;20173;-57
2022/01/04 08:17:24;;;;;;;1.87;1.50;;;9.30;99.90;;;;;;5011729;28;20662;-54
2022/01/04 08:19:52;;;;;;;2.70;1.30;;;9.30;99.90;;;;;;5011533;28;20600;-55
2022/01/04 08:22:18;;;;;;;4.73;3.30;;;9.30;99.90;;;;;;5012044;28;20180;-56
2022/01/04 08:24:43;;;;;;;1.50;1.40;;;9.30;99.90;;;;;;5011591;28;20180;-56
2022/01/04 08:27:09;;;;;;;1.70;1.43;;;9.20;99.90;;;;;;5011847;28;20220;-54
2022/01/04 08:29:35;;;;;;;2.17;1.50;;;9.30;99.90;;;;;;5011845;28;20203;-50
2022/01/04 08:32:00;;;;;;;1.50;1.40;;;9.40;99.90;;;;;;5011885;28;20177;-52
2022/01/04 08:34:26;;;;;;;2.03;1.50;;;9.30;99.90;;;;;;5011284;28;20552;-49
2022/01/04 08:36:52;;;;;;;5.20;1.77;;;9.20;99.90;;;;;;5011672;28;20242;-50
2022/01/04 08:39:19;;;;;;;3.97;3.63;;;9.10;99.90;;;;;;5011746;28;20172;-51
2022/01/04 08:41:46;;;;;;;2.10;1.63;;;9.10;99.90;;;;;;5011684;28;20270;-49
2022/01/04 08:44:12;;;;;;;2.20;2.00;;;9.10;99.90;;;;;;5011455;28;20191;-55
2022/01/04 08:46:39;;;;;;;2.07;1.87;;;9.00;99.90;;;;;;5011262;28;20172;-51
2022/01/04 08:49:07;;;;;;;3.10;1.73;;;9.00;99.90;;;;;;5011548;28;20260;-49
2022/01/04 08:51:33;;;;;;;6.93;5.07;;;9.10;99.90;;;;;;5011342;28;20180;-49
2022/01/04 08:53:59;;;;;;;5.50;5.00;;;9.20;99.90;;;;;;5011286;28;20692;-49
2022/01/04 08:56:25;;;;;;;6.10;5.10;;;9.20;99.90;;;;;;5011125;28;20173;-53
2022/01/04 08:58:50;;;;;;;2.23;1.60;;;9.40;99.90;;;;;;5011360;28;20794;-49
2022/01/04 09:01:16;;;;;;;2.27;2.07;;;9.40;99.90;;;;;;5013437;28;20195;-49
2022/01/04 09:03:42;;;;;;;3.27;2.90;;;9.30;99.90;;;;;;5015176;28;20169;-52
2022/01/04 09:06:10;;;;;;;3.63;2.10;;;9.20;99.90;;;;;;5015205;28;20176;-51
2022/01/04 09:08:36;;;;;;;3.07;2.10;;;9.20;99.90;;;;;;5015061;28;20195;-51
2022/01/04 09:11:02;;;;;;;1.93;1.40;;;9.10;99.90;;;;;;5047557;23;20292;-53
2022/01/04 09:13:34;;;;;;;3.23;2.50;;;9.10;99.90;;;;;;5030800;28;20264;-55
2022/01/04 09:18:43;;;;;;;3.10;1.67;;;9.20;99.90;;;;;;5034361;28;20252;-51
2022/01/04 09:21:12;;;;;;;3.73;2.67;;;9.30;99.90;;;;;;5021796;28;20196;-52
2022/01/04 09:23:38;;;;;;;2.47;2.20;;;9.20;99.90;;;;;;5014725;28;20171;-54
2022/01/04 09:26:04;;;;;;;2.90;2.50;;;9.20;99.90;;;;;;4997097;28;20256;-52
2022/01/04 09:28:29;;;;;;;3.83;2.80;;;9.20;99.90;;;;;;5021688;28;20230;-51
2022/01/04 09:30:57;;;;;;;3.30;2.97;;;9.30;99.90;;;;;;5016253;28;20196;-54
2022/01/04 09:33:22;;;;;;;1.90;1.70;;;9.30;99.90;;;;;;5034574;28;20171;-54
2022/01/04 09:35:51;;;;;;;3.60;2.50;;;9.30;99.90;;;;;;5033936;28;20172;-54
2022/01/04 09:38:18;;;;;;;3.27;2.57;;;9.40;99.90;;;;;;5033886;28;20210;-53
2022/01/04 09:40:45;;;;;;;2.77;2.00;;;9.50;99.90;;;;;;5034063;28;20187;-53
2022/01/04 09:43:12;;;;;;;2.60;2.40;;;9.50;99.90;;;;;;5034496;28;20175;-53
2022/01/04 09:45:37;;;;;;;2.13;1.50;;;9.50;99.90;;;;;;5017812;28;20173;-54
2022/01/04 09:48:04;;;;;;;1.93;1.40;;;9.40;99.90;;;;;;5013952;28;20386;-56
2022/01/04 09:50:33;;;;;;;1.80;1.60;;;9.30;99.90;;;;;;5008038;28;20235;-56
2022/01/04 09:53:00;;;;;;;2.33;2.17;;;9.30;99.90;;;;;;5000238;28;20189;-53
2022/01/04 09:55:25;;;;;;;4.40;4.00;;;9.10;99.90;;;;;;4994044;28;20177;-52
2022/01/04 09:57:51;;;;;;;3.80;2.37;;;9.10;99.90;;;;;;4993628;28;20211;-51
2022/01/04 10:00:18;;;;;;;3.00;2.50;;;9.10;99.90;;;;;;4994616;28;20638;-53
2022/01/04 10:02:50;;;;;;;1.80;1.70;;;9.10;99.90;;;;;;4994320;28;20200;-49
2022/01/04 10:05:16;;;;;;;3.90;3.47;;;9.10;99.90;;;;;;4994046;28;20653;-53
2022/01/04 10:07:43;;;;;;;7.53;5.27;;;9.10;99.90;;;;;;4994137;28;20176;-52
2022/01/04 10:10:12;;;;;;;3.93;3.53;;;9.20;99.90;;;;;;4994224;28;20228;-51
2022/01/04 10:12:52;;;;;;;2.50;2.07;;;9.30;99.90;;;;;;4994148;28;20196;-50
2022/01/04 10:15:36;;;;;;;3.20;2.17;;;9.40;99.90;;;;;;4993825;28;20173;-50
2022/01/04 10:18:28;;;;;;;1.70;1.60;;;9.40;99.90;;;;;;4994218;28;20205;-48
2022/01/04 10:21:02;;;;;;;2.20;2.00;;;9.60;99.90;;;;;;5004561;28;20215;-48
2022/01/04 10:23:27;;;;;;;2.73;2.40;;;9.60;99.90;;;;;;5013851;28;20530;-49
2022/01/04 10:26:03;;;;;;;1.90;1.77;;;9.70;99.90;;;;;;5013114;28;20164;-50
2022/01/04 10:28:31;;;;;;;2.00;1.80;;;9.60;99.90;;;;;;5013884;28;20168;-51
2022/01/04 10:31:02;;;;;;;2.00;1.90;;;9.70;99.90;;;;;;5013295;28;20192;-50
2022/01/04 10:33:28;;;;;;;3.40;3.10;;;9.90;99.90;;;;;;5013817;28;20180;-47
2022/01/04 10:35:56;;;;;;;2.33;2.00;;;10.00;99.90;;;;;;5012820;28;20169;-50
2022/01/04 10:38:34;;;;;;;2.80;2.20;;;10.20;99.90;;;;;;5013546;28;20242;-49
2022/01/04 10:41:11;;;;;;;1.90;1.80;;;10.20;99.90;;;;;;5012972;28;20200;-53
2022/01/04 10:43:41;;;;;;;2.03;1.67;;;10.30;99.90;;;;;;5013629;28;20180;-47
2022/01/04 10:46:07;;;;;;;3.53;2.20;;;10.30;99.90;;;;;;5012773;28;20696;-50
2022/01/04 10:48:41;;;;;;;2.50;2.03;;;10.40;99.90;;;;;;5013447;28;20238;-51
2022/01/04 10:51:21;;;;;;;2.80;2.20;;;10.40;99.90;;;;;;5013270;28;20228;-53
2022/01/04 10:53:56;;;;;;;1.63;1.53;;;10.30;99.90;;;;;;5013197;28;20176;-48
2022/01/04 10:56:31;;;;;;;3.33;1.63;;;10.20;99.90;;;;;;5013215;28;20183;-52
2022/01/04 10:59:02;;;;;;;4.77;2.87;;;10.30;99.90;;;;;;5012882;28;20310;-48
2022/01/04 11:01:30;;;;;;;4.10;3.20;;;10.40;99.90;;;;;;5013240;28;20665;-50
2022/01/04 11:03:59;;;;;;;2.10;1.90;;;10.50;99.90;;;;;;5012655;28;20181;-50
2022/01/04 11:06:31;;;;;;;2.30;2.10;;;10.50;99.90;;;;;;5013061;28;20636;-47
2022/01/04 11:08:58;;;;;;;3.43;2.73;;;10.50;99.90;;;;;;5012542;28;20183;-50
2022/01/04 11:11:24;;;;;;;2.67;2.23;;;10.60;99.90;;;;;;5012873;28;20286;-48
2022/01/04 11:13:51;;;;;;;2.20;2.00;;;10.80;99.90;;;;;;5012569;28;20238;-50
2022/01/04 11:16:19;;;;;;;2.23;2.07;;;10.90;99.90;;;;;;5012647;28;20183;-51
2022/01/04 11:18:49;;;;;;;5.63;2.57;;;11.00;99.90;;;;;;5012717;28;20233;-50
2022/01/04 11:21:15;;;;;;;3.13;2.37;;;11.10;99.90;;;;;;5012609;28;20601;-50
2022/01/04 11:23:41;;;;;;;24.00;17.70;;;11.10;99.90;;;;;;5011973;28;20177;-50
2022/01/04 11:26:09;;;;;;;11.53;8.53;;;11.10;99.90;;;;;;5011985;28;20173;-49
2022/01/04 11:28:38;;;;;;;11.40;7.13;;;11.10;99.90;;;;;;5008162;28;20192;-52
2022/01/04 11:31:27;;;;;;;3.70;3.30;;;10.90;99.90;;;;;;5012184;28;20211;-48
2022/01/04 11:34:06;;;;;;;2.30;2.00;;;10.80;99.90;;;;;;5012429;28;20192;-53
2022/01/04 11:36:36;;;;;;;2.13;2.03;;;10.80;99.90;;;;;;5012149;28;20172;-48
2022/01/04 11:39:22;;;;;;;2.50;1.90;;;10.80;99.90;;;;;;5012404;28;20207;-52
2022/01/04 11:41:48;;;;;;;2.17;2.03;;;10.60;99.90;;;;;;5011819;28;20200;-49
2022/01/04 11:44:19;;;;;;;2.23;2.03;;;10.40;99.90;;;;;;5012001;28;20531;-54
2022/01/04 11:46:57;;;;;;;3.10;1.77;;;10.30;99.90;;;;;;5012235;28;20177;-48
2022/01/04 11:49:22;;;;;;;2.73;2.27;;;10.30;99.90;;;;;;5012087;28;20203;-48
2022/01/04 11:51:48;;;;;;;2.87;2.13;;;10.20;99.90;;;;;;5012258;28;20196;-49
2022/01/04 11:54:16;;;;;;;2.73;2.20;;;10.20;99.90;;;;;;5011653;28;20233;-47
2022/01/04 11:56:53;;;;;;;2.53;2.10;;;10.20;99.90;;;;;;5011912;28;20569;-49
2022/01/04 11:59:21;;;;;;;2.37;1.70;;;10.30;99.90;;;;;;5011751;28;20795;-48
2022/01/04 12:01:47;;;;;;;4.47;2.50;;;10.20;99.90;;;;;;5012329;28;20287;-50
2022/01/04 12:04:13;;;;;;;2.10;1.90;;;10.10;99.90;;;;;;5008579;28;20669;-52
2022/01/04 12:06:42;;;;;;;2.80;2.50;;;10.20;99.90;;;;;;5011970;28;20176;-50
2022/01/04 12:09:27;;;;;;;2.40;2.20;;;10.20;99.90;;;;;;5012339;28;20523;-50
2022/01/04 12:11:52;;;;;;;3.60;2.87;;;10.50;99.90;;;;;;5011454;28;20227;-48
2022/01/04 12:14:27;;;;;;;5.30;3.67;;;10.60;99.90;;;;;;5011784;28;20181;-48
2022/01/04 12:17:02;;;;;;;3.90;3.47;;;10.70;99.90;;;;;;5011624;28;20522;-49
2022/01/04 12:19:50;;;;;;;3.57;3.27;;;10.80;99.90;;;;;;5011918;28;20553;-52
2022/01/04 12:22:33;;;;;;;3.57;3.27;;;10.90;99.90;;;;;;5010993;28;20208;-48
2022/01/04 12:25:04;;;;;;;4.50;4.10;;;10.90;99.90;;;;;;5011324;28;20169;-47
2022/01/04 12:27:30;;;;;;;4.93;4.30;;;11.00;99.90;;;;;;5011399;28;20185;-49
2022/01/04 12:30:21;;;;;;;5.30;4.10;;;11.10;99.90;;;;;;5011736;28;20183;-51
2022/01/04 12:32:47;;;;;;;11.13;10.03;;;11.20;99.90;;;;;;5011689;28;20172;-51
2022/01/04 12:35:12;;;;;;;7.37;6.40;;;11.20;99.90;;;;;;5011929;28;20550;-54
2022/01/04 12:37:38;;;;;;;8.23;7.43;;;11.30;99.90;;;;;;5015490;28;20235;-49
2022/01/04 12:40:04;;;;;;;3.80;3.40;;;11.40;99.90;;;;;;5015474;28;20169;-50
2022/01/04 12:42:30;;;;;;;3.20;2.93;;;11.40;99.90;;;;;;5015456;28;20219;-52
2022/01/04 12:44:58;;;;;;;3.27;2.97;;;11.50;99.90;;;;;;5014058;28;20630;-52
2022/01/04 12:47:25;;;;;;;3.33;2.97;;;11.50;99.90;;;;;;5015350;28;20564;-51
2022/01/04 12:49:51;;;;;;;2.97;2.67;;;11.60;99.90;;;;;;5015511;28;20172;-48
2022/01/04 12:52:19;;;;;;;3.00;2.70;;;11.60;99.90;;;;;;5015064;28;20283;-50
2022/01/04 12:54:45;;;;;;;3.10;2.90;;;11.60;99.90;;;;;;5015208;28;20172;-50
2022/01/04 12:57:13;;;;;;;3.80;3.10;;;11.60;99.90;;;;;;5015077;28;20617;-48
2022/01/04 12:59:40;;;;;;;5.23;4.10;;;11.70;99.90;;;;;;5015345;28;20173;-47
2022/01/04 13:02:18;;;;;;;13.73;12.33;;;11.70;99.90;;;;;;5014941;28;20193;-55